sensor_id;sensor_type;location;lat;lon;timestamp;P1;durP1;ratioP1;P2;durP2;ratioP2
48853;SDS011;34673;52.808;17.856;2022-11-15T00:00:15;141.30;;;45.58;;
48853;SDS011;34673;52.808;17.856;2022-11-15T00:03:01;179.32;;;49.70;;
48853;SDS011;34673;52.808;17.856;2022-11-15T00:05:47;113.65;;;41.75;;
48853;SDS011;34673;52.808;17.856;2022-11-15T00:08:34;132.07;;;45.85;;
48853;SDS011;34673;52.808;17.856;2022-11-15T00:11:20;133.57;;;43.20;;
48853;SDS011;34673;52.808;17.856;2022-11-15T00:14:06;123.40;;;45.28;;
48853;SDS011;34673;52.808;17.856;2022-11-15T00:16:52;142.93;;;45.22;;
48853;SDS011;34673;52.808;17.856;2022-11-15T00:19:38;135.85;;;45.28;;
48853;SDS011;34673;52.808;17.856;2022-11-15T00:22:24;136.65;;;45.08;;
48853;SDS011;34673;52.808;17.856;2022-11-15T00:25:10;147.80;;;46.63;;
48853;SDS011;34673;52.808;17.856;2022-11-15T00:27:56;157.75;;;46.53;;
48853;SDS011;34673;52.808;17.856;2022-11-15T00:30:42;182.02;;;46.17;;
48853;SDS011;34673;52.808;17.856;2022-11-15T00:33:28;153.70;;;45.25;;
48853;SDS011;34673;52.808;17.856;2022-11-15T00:36:15;136.00;;;43.95;;
48853;SDS011;34673;52.808;17.856;2022-11-15T00:39:03;126.85;;;43.05;;
48853;SDS011;34673;52.808;17.856;2022-11-15T00:41:50;167.00;;;46.37;;
48853;SDS011;34673;52.808;17.856;2022-11-15T00:44:36;198.68;;;48.88;;
48853;SDS011;34673;52.808;17.856;2022-11-15T00:47:22;176.65;;;48.00;;
48853;SDS011;34673;52.808;17.856;2022-11-15T00:50:08;202.73;;;48.33;;
48853;SDS011;34673;52.808;17.856;2022-11-15T00:52:59;168.80;;;47.50;;
48853;SDS011;34673;52.808;17.856;2022-11-15T00:55:45;211.07;;;49.55;;
48853;SDS011;34673;52.808;17.856;2022-11-15T00:58:31;141.98;;;46.90;;
48853;SDS011;34673;52.808;17.856;2022-11-15T01:01:18;161.88;;;46.67;;
48853;SDS011;34673;52.808;17.856;2022-11-15T01:04:03;178.07;;;47.15;;
48853;SDS011;34673;52.808;17.856;2022-11-15T01:06:49;141.18;;;44.40;;
48853;SDS011;34673;52.808;17.856;2022-11-15T01:09:35;160.05;;;47.53;;
48853;SDS011;34673;52.808;17.856;2022-11-15T01:12:21;127.60;;;42.53;;
48853;SDS011;34673;52.808;17.856;2022-11-15T01:15:07;143.07;;;43.95;;
48853;SDS011;34673;52.808;17.856;2022-11-15T01:17:53;136.20;;;44.70;;
48853;SDS011;34673;52.808;17.856;2022-11-15T01:20:41;136.93;;;43.58;;
48853;SDS011;34673;52.808;17.856;2022-11-15T01:23:28;124.60;;;42.33;;
48853;SDS011;34673;52.808;17.856;2022-11-15T01:26:15;130.02;;;42.15;;
48853;SDS011;34673;52.808;17.856;2022-11-15T01:29:01;193.90;;;45.65;;
48853;SDS011;34673;52.808;17.856;2022-11-15T01:31:47;141.57;;;41.50;;
48853;SDS011;34673;52.808;17.856;2022-11-15T01:34:33;150.65;;;42.95;;
48853;SDS011;34673;52.808;17.856;2022-11-15T01:37:19;129.60;;;42.35;;
48853;SDS011;34673;52.808;17.856;2022-11-15T01:40:05;169.00;;;43.45;;
48853;SDS011;34673;52.808;17.856;2022-11-15T01:42:51;169.52;;;42.90;;
48853;SDS011;34673;52.808;17.856;2022-11-15T01:45:37;195.52;;;44.60;;
48853;SDS011;34673;52.808;17.856;2022-11-15T01:48:31;149.90;;;40.70;;
48853;SDS011;34673;52.808;17.856;2022-11-15T01:51:20;142.30;;;41.28;;
48853;SDS011;34673;52.808;17.856;2022-11-15T01:54:09;155.93;;;41.17;;
48853;SDS011;34673;52.808;17.856;2022-11-15T01:56:59;121.55;;;38.17;;
48853;SDS011;34673;52.808;17.856;2022-11-15T01:59:49;142.70;;;41.40;;
48853;SDS011;34673;52.808;17.856;2022-11-15T02:02:35;145.90;;;41.47;;
48853;SDS011;34673;52.808;17.856;2022-11-15T02:05:22;128.05;;;39.50;;
48853;SDS011;34673;52.808;17.856;2022-11-15T02:08:08;139.13;;;41.08;;
48853;SDS011;34673;52.808;17.856;2022-11-15T02:11:08;142.70;;;40.58;;
48853;SDS011;34673;52.808;17.856;2022-11-15T02:13:55;134.98;;;39.55;;
48853;SDS011;34673;52.808;17.856;2022-11-15T02:26:02;165.45;;;40.60;;
48853;SDS011;34673;52.808;17.856;2022-11-15T02:29:10;177.60;;;43.00;;
48853;SDS011;34673;52.808;17.856;2022-11-15T02:32:11;145.20;;;40.92;;
48853;SDS011;34673;52.808;17.856;2022-11-15T02:38:26;141.13;;;39.55;;
48853;SDS011;34673;52.808;17.856;2022-11-15T02:41:20;161.40;;;42.55;;
48853;SDS011;34673;52.808;17.856;2022-11-15T02:44:45;150.32;;;39.92;;
48853;SDS011;34673;52.808;17.856;2022-11-15T02:47:25;133.07;;;40.10;;
48853;SDS011;34673;52.808;17.856;2022-11-15T02:50:16;148.65;;;40.22;;
48853;SDS011;34673;52.808;17.856;2022-11-15T02:53:03;167.27;;;42.33;;
48853;SDS011;34673;52.808;17.856;2022-11-15T02:55:49;162.85;;;43.65;;
48853;SDS011;34673;52.808;17.856;2022-11-15T03:04:55;137.48;;;40.78;;
48853;SDS011;34673;52.808;17.856;2022-11-15T03:10:49;195.82;;;42.30;;
48853;SDS011;34673;52.808;17.856;2022-11-15T03:14:07;143.55;;;40.15;;
48853;SDS011;34673;52.808;17.856;2022-11-15T03:20:01;234.60;;;43.63;;
48853;SDS011;34673;52.808;17.856;2022-11-15T03:22:51;174.27;;;40.85;;
48853;SDS011;34673;52.808;17.856;2022-11-15T03:25:41;151.52;;;40.83;;
48853;SDS011;34673;52.808;17.856;2022-11-15T03:28:42;147.32;;;39.70;;
48853;SDS011;34673;52.808;17.856;2022-11-15T03:31:36;140.00;;;39.72;;
48853;SDS011;34673;52.808;17.856;2022-11-15T03:34:57;170.07;;;42.15;;
48853;SDS011;34673;52.808;17.856;2022-11-15T03:41:03;125.80;;;36.47;;
48853;SDS011;34673;52.808;17.856;2022-11-15T03:46:46;131.38;;;39.22;;
48853;SDS011;34673;52.808;17.856;2022-11-15T03:49:39;190.38;;;43.60;;
48853;SDS011;34673;52.808;17.856;2022-11-15T03:52:31;172.60;;;43.20;;
48853;SDS011;34673;52.808;17.856;2022-11-15T03:55:19;215.65;;;42.72;;
48853;SDS011;34673;52.808;17.856;2022-11-15T03:58:06;211.07;;;45.00;;
48853;SDS011;34673;52.808;17.856;2022-11-15T04:00:52;107.93;;;37.25;;
48853;SDS011;34673;52.808;17.856;2022-11-15T04:03:38;190.77;;;43.53;;
48853;SDS011;34673;52.808;17.856;2022-11-15T04:06:24;144.30;;;41.33;;
48853;SDS011;34673;52.808;17.856;2022-11-15T04:09:10;202.68;;;46.28;;
48853;SDS011;34673;52.808;17.856;2022-11-15T04:11:56;180.00;;;45.85;;
48853;SDS011;34673;52.808;17.856;2022-11-15T04:14:42;131.30;;;39.97;;
48853;SDS011;34673;52.808;17.856;2022-11-15T04:17:49;127.63;;;39.50;;
48853;SDS011;34673;52.808;17.856;2022-11-15T04:20:37;174.55;;;42.28;;
48853;SDS011;34673;52.808;17.856;2022-11-15T04:23:41;161.32;;;42.30;;
48853;SDS011;34673;52.808;17.856;2022-11-15T04:26:53;107.57;;;36.60;;
48853;SDS011;34673;52.808;17.856;2022-11-15T04:29:38;123.13;;;36.55;;
48853;SDS011;34673;52.808;17.856;2022-11-15T04:32:25;134.63;;;38.55;;
48853;SDS011;34673;52.808;17.856;2022-11-15T04:35:10;140.73;;;39.33;;
48853;SDS011;34673;52.808;17.856;2022-11-15T04:37:57;149.57;;;41.58;;
48853;SDS011;34673;52.808;17.856;2022-11-15T04:40:43;186.48;;;41.58;;
48853;SDS011;34673;52.808;17.856;2022-11-15T04:43:30;169.20;;;41.65;;
48853;SDS011;34673;52.808;17.856;2022-11-15T04:46:16;137.88;;;39.25;;
48853;SDS011;34673;52.808;17.856;2022-11-15T04:49:02;239.85;;;45.28;;
48853;SDS011;34673;52.808;17.856;2022-11-15T04:51:49;122.53;;;36.90;;
48853;SDS011;34673;52.808;17.856;2022-11-15T04:54:35;205.10;;;42.30;;
48853;SDS011;34673;52.808;17.856;2022-11-15T04:57:21;202.18;;;43.65;;
48853;SDS011;34673;52.808;17.856;2022-11-15T05:00:09;229.02;;;43.83;;
48853;SDS011;34673;52.808;17.856;2022-11-15T05:02:57;164.25;;;41.58;;
48853;SDS011;34673;52.808;17.856;2022-11-15T05:06:02;149.90;;;39.75;;
48853;SDS011;34673;52.808;17.856;2022-11-15T05:08:47;105.15;;;36.00;;
48853;SDS011;34673;52.808;17.856;2022-11-15T05:11:33;135.00;;;37.75;;
48853;SDS011;34673;52.808;17.856;2022-11-15T05:14:19;164.55;;;37.92;;
48853;SDS011;34673;52.808;17.856;2022-11-15T05:17:05;170.98;;;41.25;;
48853;SDS011;34673;52.808;17.856;2022-11-15T05:19:51;147.23;;;37.72;;
48853;SDS011;34673;52.808;17.856;2022-11-15T05:22:37;213.45;;;41.47;;
48853;SDS011;34673;52.808;17.856;2022-11-15T05:25:23;146.05;;;40.30;;
48853;SDS011;34673;52.808;17.856;2022-11-15T05:28:09;125.40;;;37.92;;
48853;SDS011;34673;52.808;17.856;2022-11-15T05:31:08;136.13;;;36.08;;
48853;SDS011;34673;52.808;17.856;2022-11-15T05:33:56;143.75;;;38.80;;
48853;SDS011;34673;52.808;17.856;2022-11-15T05:36:45;100.43;;;35.85;;
48853;SDS011;34673;52.808;17.856;2022-11-15T05:39:31;180.40;;;42.03;;
48853;SDS011;34673;52.808;17.856;2022-11-15T05:42:17;126.25;;;36.85;;
48853;SDS011;34673;52.808;17.856;2022-11-15T05:45:04;94.10;;;35.40;;
48853;SDS011;34673;52.808;17.856;2022-11-15T05:47:51;210.60;;;42.42;;
48853;SDS011;34673;52.808;17.856;2022-11-15T05:50:40;130.63;;;37.47;;
48853;SDS011;34673;52.808;17.856;2022-11-15T05:53:29;247.82;;;42.90;;
48853;SDS011;34673;52.808;17.856;2022-11-15T05:56:16;202.00;;;40.28;;
48853;SDS011;34673;52.808;17.856;2022-11-15T05:59:02;123.75;;;35.25;;
48853;SDS011;34673;52.808;17.856;2022-11-15T06:01:49;120.88;;;35.97;;
48853;SDS011;34673;52.808;17.856;2022-11-15T06:04:35;176.80;;;40.05;;
48853;SDS011;34673;52.808;17.856;2022-11-15T06:07:21;179.35;;;36.00;;
48853;SDS011;34673;52.808;17.856;2022-11-15T06:10:07;187.27;;;37.58;;
48853;SDS011;34673;52.808;17.856;2022-11-15T06:12:58;215.90;;;39.88;;
48853;SDS011;34673;52.808;17.856;2022-11-15T06:15:44;142.60;;;37.25;;
48853;SDS011;34673;52.808;17.856;2022-11-15T06:18:31;230.80;;;39.70;;
48853;SDS011;34673;52.808;17.856;2022-11-15T06:21:18;207.32;;;39.40;;
48853;SDS011;34673;52.808;17.856;2022-11-15T06:24:04;244.95;;;41.20;;
48853;SDS011;34673;52.808;17.856;2022-11-15T06:26:50;276.20;;;42.28;;
48853;SDS011;34673;52.808;17.856;2022-11-15T06:29:36;192.27;;;39.53;;
48853;SDS011;34673;52.808;17.856;2022-11-15T06:32:22;135.02;;;34.85;;
48853;SDS011;34673;52.808;17.856;2022-11-15T06:35:08;180.90;;;35.88;;
48853;SDS011;34673;52.808;17.856;2022-11-15T06:37:54;201.05;;;36.97;;
48853;SDS011;34673;52.808;17.856;2022-11-15T06:40:40;198.68;;;35.58;;
48853;SDS011;34673;52.808;17.856;2022-11-15T06:43:26;82.22;;;31.75;;
48853;SDS011;34673;52.808;17.856;2022-11-15T06:46:12;98.00;;;30.55;;
48853;SDS011;34673;52.808;17.856;2022-11-15T06:48:58;133.50;;;34.22;;
48853;SDS011;34673;52.808;17.856;2022-11-15T06:51:49;129.00;;;31.23;;
48853;SDS011;34673;52.808;17.856;2022-11-15T06:54:35;134.88;;;32.95;;
48853;SDS011;34673;52.808;17.856;2022-11-15T06:57:21;181.55;;;34.88;;
48853;SDS011;34673;52.808;17.856;2022-11-15T07:00:06;151.63;;;31.08;;
48853;SDS011;34673;52.808;17.856;2022-11-15T07:02:53;256.65;;;36.33;;
48853;SDS011;34673;52.808;17.856;2022-11-15T07:05:39;209.93;;;37.80;;
48853;SDS011;34673;52.808;17.856;2022-11-15T07:08:26;182.93;;;32.97;;
48853;SDS011;34673;52.808;17.856;2022-11-15T07:11:13;213.57;;;36.97;;
48853;SDS011;34673;52.808;17.856;2022-11-15T07:13:59;158.18;;;34.55;;
48853;SDS011;34673;52.808;17.856;2022-11-15T07:16:45;225.43;;;35.72;;
48853;SDS011;34673;52.808;17.856;2022-11-15T07:19:31;190.20;;;36.85;;
48853;SDS011;34673;52.808;17.856;2022-11-15T07:22:17;184.65;;;34.67;;
48853;SDS011;34673;52.808;17.856;2022-11-15T07:25:03;268.08;;;37.85;;
48853;SDS011;34673;52.808;17.856;2022-11-15T07:27:59;130.32;;;31.85;;
48853;SDS011;34673;52.808;17.856;2022-11-15T07:30:45;76.07;;;28.30;;
48853;SDS011;34673;52.808;17.856;2022-11-15T07:33:31;268.90;;;37.85;;
48853;SDS011;34673;52.808;17.856;2022-11-15T07:36:18;149.15;;;34.55;;
48853;SDS011;34673;52.808;17.856;2022-11-15T07:39:04;127.28;;;30.73;;
48853;SDS011;34673;52.808;17.856;2022-11-15T07:41:50;167.07;;;33.40;;
48853;SDS011;34673;52.808;17.856;2022-11-15T07:44:55;243.68;;;36.58;;
48853;SDS011;34673;52.808;17.856;2022-11-15T07:47:44;225.20;;;38.40;;
48853;SDS011;34673;52.808;17.856;2022-11-15T07:50:31;146.75;;;34.15;;
48853;SDS011;34673;52.808;17.856;2022-11-15T07:53:17;212.13;;;36.15;;
48853;SDS011;34673;52.808;17.856;2022-11-15T07:56:05;225.35;;;37.80;;
48853;SDS011;34673;52.808;17.856;2022-11-15T07:58:53;88.78;;;28.77;;
48853;SDS011;34673;52.808;17.856;2022-11-15T08:01:38;175.13;;;34.20;;
48853;SDS011;34673;52.808;17.856;2022-11-15T08:04:24;182.88;;;34.63;;
48853;SDS011;34673;52.808;17.856;2022-11-15T08:07:11;107.32;;;29.83;;
48853;SDS011;34673;52.808;17.856;2022-11-15T08:09:57;90.18;;;28.40;;
48853;SDS011;34673;52.808;17.856;2022-11-15T08:12:44;129.27;;;31.02;;
48853;SDS011;34673;52.808;17.856;2022-11-15T08:15:30;276.52;;;35.38;;
48853;SDS011;34673;52.808;17.856;2022-11-15T08:18:17;145.23;;;31.17;;
48853;SDS011;34673;52.808;17.856;2022-11-15T08:21:02;250.30;;;35.58;;
48853;SDS011;34673;52.808;17.856;2022-11-15T08:23:49;241.30;;;38.08;;
48853;SDS011;34673;52.808;17.856;2022-11-15T08:26:34;90.72;;;28.23;;
48853;SDS011;34673;52.808;17.856;2022-11-15T08:29:21;108.30;;;31.23;;
48853;SDS011;34673;52.808;17.856;2022-11-15T08:32:07;134.43;;;29.42;;
48853;SDS011;34673;52.808;17.856;2022-11-15T08:34:53;117.20;;;29.48;;
48853;SDS011;34673;52.808;17.856;2022-11-15T08:37:39;114.85;;;29.15;;
48853;SDS011;34673;52.808;17.856;2022-11-15T08:40:25;121.45;;;31.48;;
48853;SDS011;34673;52.808;17.856;2022-11-15T08:43:12;71.15;;;26.98;;
48853;SDS011;34673;52.808;17.856;2022-11-15T08:45:58;80.25;;;28.25;;
48853;SDS011;34673;52.808;17.856;2022-11-15T08:48:44;94.22;;;29.95;;
48853;SDS011;34673;52.808;17.856;2022-11-15T08:51:30;73.75;;;27.65;;
48853;SDS011;34673;52.808;17.856;2022-11-15T08:54:16;97.70;;;30.63;;
48853;SDS011;34673;52.808;17.856;2022-11-15T08:57:02;97.55;;;29.38;;
48853;SDS011;34673;52.808;17.856;2022-11-15T08:59:48;120.60;;;33.47;;
48853;SDS011;34673;52.808;17.856;2022-11-15T09:02:34;216.02;;;37.50;;
48853;SDS011;34673;52.808;17.856;2022-11-15T09:05:22;185.27;;;34.22;;
48853;SDS011;34673;52.808;17.856;2022-11-15T09:08:08;134.90;;;30.30;;
48853;SDS011;34673;52.808;17.856;2022-11-15T09:11:14;66.38;;;28.48;;
48853;SDS011;34673;52.808;17.856;2022-11-15T09:14:03;212.75;;;37.45;;
48853;SDS011;34673;52.808;17.856;2022-11-15T09:16:49;112.97;;;31.83;;
48853;SDS011;34673;52.808;17.856;2022-11-15T09:19:35;74.15;;;28.48;;
48853;SDS011;34673;52.808;17.856;2022-11-15T09:22:22;124.50;;;32.20;;
48853;SDS011;34673;52.808;17.856;2022-11-15T09:25:08;135.23;;;30.83;;
48853;SDS011;34673;52.808;17.856;2022-11-15T09:27:55;134.55;;;34.90;;
48853;SDS011;34673;52.808;17.856;2022-11-15T09:30:42;80.40;;;31.27;;
48853;SDS011;34673;52.808;17.856;2022-11-15T09:33:28;130.15;;;33.63;;
48853;SDS011;34673;52.808;17.856;2022-11-15T09:36:14;86.70;;;31.02;;
48853;SDS011;34673;52.808;17.856;2022-11-15T09:39:01;126.13;;;33.75;;
48853;SDS011;34673;52.808;17.856;2022-11-15T09:48:17;115.70;;;33.38;;
48853;SDS011;34673;52.808;17.856;2022-11-15T09:51:43;119.93;;;31.77;;
48853;SDS011;34673;52.808;17.856;2022-11-15T09:54:27;110.88;;;31.52;;
48853;SDS011;34673;52.808;17.856;2022-11-15T10:05:48;120.77;;;34.67;;
48853;SDS011;34673;52.808;17.856;2022-11-15T10:10:53;84.47;;;30.48;;
48853;SDS011;34673;52.808;17.856;2022-11-15T10:13:44;89.90;;;31.73;;
48853;SDS011;34673;52.808;17.856;2022-11-15T10:24:38;116.60;;;34.63;;
48853;SDS011;34673;52.808;17.856;2022-11-15T10:27:15;85.95;;;33.08;;
48853;SDS011;34673;52.808;17.856;2022-11-15T10:29:45;179.20;;;38.65;;
48853;SDS011;34673;52.808;17.856;2022-11-15T10:32:15;137.35;;;39.25;;
48853;SDS011;34673;52.808;17.856;2022-11-15T10:34:45;188.82;;;37.92;;
48853;SDS011;34673;52.808;17.856;2022-11-15T10:37:13;119.60;;;33.40;;
48853;SDS011;34673;52.808;17.856;2022-11-15T10:39:41;137.70;;;33.90;;
48853;SDS011;34673;52.808;17.856;2022-11-15T10:42:42;106.38;;;33.33;;
48853;SDS011;34673;52.808;17.856;2022-11-15T10:45:02;153.93;;;35.15;;
48853;SDS011;34673;52.808;17.856;2022-11-15T10:47:50;100.88;;;30.20;;
48853;SDS011;34673;52.808;17.856;2022-11-15T10:50:28;119.95;;;33.50;;
48853;SDS011;34673;52.808;17.856;2022-11-15T10:52:57;124.28;;;34.17;;
48853;SDS011;34673;52.808;17.856;2022-11-15T10:55:31;173.35;;;38.25;;
48853;SDS011;34673;52.808;17.856;2022-11-15T10:58:02;140.30;;;34.75;;
48853;SDS011;34673;52.808;17.856;2022-11-15T11:00:36;102.28;;;33.97;;
48853;SDS011;34673;52.808;17.856;2022-11-15T11:03:18;85.47;;;32.63;;
48853;SDS011;34673;52.808;17.856;2022-11-15T11:05:48;79.70;;;32.53;;
48853;SDS011;34673;52.808;17.856;2022-11-15T11:10:51;139.88;;;35.78;;
48853;SDS011;34673;52.808;17.856;2022-11-15T11:13:29;74.20;;;31.45;;
48853;SDS011;34673;52.808;17.856;2022-11-15T11:18:42;81.10;;;32.33;;
48853;SDS011;34673;52.808;17.856;2022-11-15T11:21:16;183.50;;;37.90;;
48853;SDS011;34673;52.808;17.856;2022-11-15T11:24:11;87.03;;;34.35;;
48853;SDS011;34673;52.808;17.856;2022-11-15T11:35:30;109.63;;;38.33;;
48853;SDS011;34673;52.808;17.856;2022-11-15T11:47:18;96.85;;;34.92;;
48853;SDS011;34673;52.808;17.856;2022-11-15T11:49:52;93.05;;;33.83;;
48853;SDS011;34673;52.808;17.856;2022-11-15T11:55:15;88.05;;;32.85;;
48853;SDS011;34673;52.808;17.856;2022-11-15T12:00:57;104.95;;;34.85;;
48853;SDS011;34673;52.808;17.856;2022-11-15T12:03:39;92.53;;;34.05;;
48853;SDS011;34673;52.808;17.856;2022-11-15T12:09:16;89.13;;;33.97;;
48853;SDS011;34673;52.808;17.856;2022-11-15T12:11:50;102.95;;;33.75;;
48853;SDS011;34673;52.808;17.856;2022-11-15T12:16:53;92.03;;;35.78;;
48853;SDS011;34673;52.808;17.856;2022-11-15T12:19:21;87.90;;;34.80;;
48853;SDS011;34673;52.808;17.856;2022-11-15T12:21:58;96.32;;;33.85;;
48853;SDS011;34673;52.808;17.856;2022-11-15T12:24:38;75.70;;;31.30;;
48853;SDS011;34673;52.808;17.856;2022-11-15T12:29:38;75.32;;;32.35;;
48853;SDS011;34673;52.808;17.856;2022-11-15T12:32:29;78.03;;;32.97;;
48853;SDS011;34673;52.808;17.856;2022-11-15T12:35:00;85.85;;;33.65;;
48853;SDS011;34673;52.808;17.856;2022-11-15T12:45:43;102.15;;;33.58;;
48853;SDS011;34673;52.808;17.856;2022-11-15T13:06:58;68.05;;;30.83;;
48853;SDS011;34673;52.808;17.856;2022-11-15T13:14:54;73.32;;;32.60;;
48853;SDS011;34673;52.808;17.856;2022-11-15T13:20:07;93.30;;;35.13;;
48853;SDS011;34673;52.808;17.856;2022-11-15T13:27:57;83.28;;;33.47;;
48853;SDS011;34673;52.808;17.856;2022-11-15T13:30:32;94.68;;;34.30;;
48853;SDS011;34673;52.808;17.856;2022-11-15T13:33:00;86.75;;;34.15;;
48853;SDS011;34673;52.808;17.856;2022-11-15T13:35:36;90.70;;;35.53;;
48853;SDS011;34673;52.808;17.856;2022-11-15T13:38:11;164.38;;;41.13;;
48853;SDS011;34673;52.808;17.856;2022-11-15T13:41:14;108.63;;;37.08;;
48853;SDS011;34673;52.808;17.856;2022-11-15T13:43:48;110.40;;;38.83;;
48853;SDS011;34673;52.808;17.856;2022-11-15T13:46:19;171.20;;;38.42;;
48853;SDS011;34673;52.808;17.856;2022-11-15T13:48:52;129.13;;;35.28;;
48853;SDS011;34673;52.808;17.856;2022-11-15T13:51:42;86.20;;;35.58;;
48853;SDS011;34673;52.808;17.856;2022-11-15T13:56:59;86.28;;;34.03;;
48853;SDS011;34673;52.808;17.856;2022-11-15T13:59:33;98.38;;;36.53;;
48853;SDS011;34673;52.808;17.856;2022-11-15T14:02:12;104.25;;;36.65;;
48853;SDS011;34673;52.808;17.856;2022-11-15T14:04:49;93.75;;;35.25;;
48853;SDS011;34673;52.808;17.856;2022-11-15T14:07:21;117.32;;;39.83;;
48853;SDS011;34673;52.808;17.856;2022-11-15T14:12:31;102.50;;;37.20;;
48853;SDS011;34673;52.808;17.856;2022-11-15T14:15:18;112.93;;;38.85;;
48853;SDS011;34673;52.808;17.856;2022-11-15T14:20:38;195.30;;;40.80;;
48853;SDS011;34673;52.808;17.856;2022-11-15T14:23:19;123.50;;;36.10;;
48853;SDS011;34673;52.808;17.856;2022-11-15T14:25:53;114.47;;;36.67;;
48853;SDS011;34673;52.808;17.856;2022-11-15T14:30:53;141.60;;;40.90;;
48853;SDS011;34673;52.808;17.856;2022-11-15T14:33:29;256.23;;;48.30;;
48853;SDS011;34673;52.808;17.856;2022-11-15T14:36:06;130.95;;;41.58;;
48853;SDS011;34673;52.808;17.856;2022-11-15T14:38:41;133.63;;;39.92;;
48853;SDS011;34673;52.808;17.856;2022-11-15T14:41:22;110.70;;;38.67;;
48853;SDS011;34673;52.808;17.856;2022-11-15T14:43:53;126.35;;;37.58;;
48853;SDS011;34673;52.808;17.856;2022-11-15T14:46:20;100.97;;;35.92;;
48853;SDS011;34673;52.808;17.856;2022-11-15T14:48:48;135.45;;;38.72;;
48853;SDS011;34673;52.808;17.856;2022-11-15T14:51:16;164.50;;;42.47;;
48853;SDS011;34673;52.808;17.856;2022-11-15T14:53:45;136.65;;;42.50;;
48853;SDS011;34673;52.808;17.856;2022-11-15T14:56:13;276.23;;;47.92;;
48853;SDS011;34673;52.808;17.856;2022-11-15T14:58:41;153.95;;;45.25;;
48853;SDS011;34673;52.808;17.856;2022-11-15T15:01:13;273.13;;;53.58;;
48853;SDS011;34673;52.808;17.856;2022-11-15T15:03:47;268.83;;;55.50;;
48853;SDS011;34673;52.808;17.856;2022-11-15T15:06:14;348.50;;;57.47;;
48853;SDS011;34673;52.808;17.856;2022-11-15T15:08:44;237.57;;;54.93;;
48853;SDS011;34673;52.808;17.856;2022-11-15T15:11:21;308.02;;;58.60;;
48853;SDS011;34673;52.808;17.856;2022-11-15T15:13:50;377.58;;;62.92;;
48853;SDS011;34673;52.808;17.856;2022-11-15T15:16:19;313.65;;;58.78;;
48853;SDS011;34673;52.808;17.856;2022-11-15T15:18:46;329.95;;;57.65;;
48853;SDS011;34673;52.808;17.856;2022-11-15T15:21:21;331.45;;;56.10;;
48853;SDS011;34673;52.808;17.856;2022-11-15T15:23:51;412.90;;;65.72;;
48853;SDS011;34673;52.808;17.856;2022-11-15T15:26:21;242.70;;;53.30;;
48853;SDS011;34673;52.808;17.856;2022-11-15T15:28:50;168.57;;;49.00;;
48853;SDS011;34673;52.808;17.856;2022-11-15T15:31:18;298.00;;;58.00;;
48853;SDS011;34673;52.808;17.856;2022-11-15T15:33:46;240.25;;;53.78;;
48853;SDS011;34673;52.808;17.856;2022-11-15T15:36:15;209.18;;;49.75;;
48853;SDS011;34673;52.808;17.856;2022-11-15T15:38:45;262.75;;;55.88;;
48853;SDS011;34673;52.808;17.856;2022-11-15T15:41:14;288.35;;;58.17;;
48853;SDS011;34673;52.808;17.856;2022-11-15T15:43:42;403.42;;;66.03;;
48853;SDS011;34673;52.808;17.856;2022-11-15T15:46:11;408.25;;;63.75;;
48853;SDS011;34673;52.808;17.856;2022-11-15T15:48:40;417.63;;;65.03;;
48853;SDS011;34673;52.808;17.856;2022-11-15T15:51:08;433.08;;;68.97;;
48853;SDS011;34673;52.808;17.856;2022-11-15T15:53:45;210.25;;;53.40;;
48853;SDS011;34673;52.808;17.856;2022-11-15T15:56:13;205.45;;;52.53;;
48853;SDS011;34673;52.808;17.856;2022-11-15T15:58:41;460.95;;;66.70;;
48853;SDS011;34673;52.808;17.856;2022-11-15T16:01:08;611.28;;;78.47;;
48853;SDS011;34673;52.808;17.856;2022-11-15T16:03:36;365.63;;;62.53;;
48853;SDS011;34673;52.808;17.856;2022-11-15T16:06:03;363.80;;;60.65;;
48853;SDS011;34673;52.808;17.856;2022-11-15T16:08:32;302.73;;;52.30;;
48853;SDS011;34673;52.808;17.856;2022-11-15T16:11:19;201.10;;;46.10;;
48853;SDS011;34673;52.808;17.856;2022-11-15T16:13:46;364.23;;;53.35;;
48853;SDS011;34673;52.808;17.856;2022-11-15T16:16:21;282.60;;;46.90;;
48853;SDS011;34673;52.808;17.856;2022-11-15T16:18:48;285.35;;;48.45;;
48853;SDS011;34673;52.808;17.856;2022-11-15T16:21:16;269.55;;;46.97;;
48853;SDS011;34673;52.808;17.856;2022-11-15T16:23:43;328.50;;;53.03;;
48853;SDS011;34673;52.808;17.856;2022-11-15T16:26:26;228.88;;;45.03;;
48853;SDS011;34673;52.808;17.856;2022-11-15T16:28:55;258.05;;;46.40;;
48853;SDS011;34673;52.808;17.856;2022-11-15T16:31:23;230.80;;;42.33;;
48853;SDS011;34673;52.808;17.856;2022-11-15T16:33:50;146.88;;;41.33;;
48853;SDS011;34673;52.808;17.856;2022-11-15T16:38:45;143.90;;;40.42;;
48853;SDS011;34673;52.808;17.856;2022-11-15T16:41:12;185.23;;;39.13;;
48853;SDS011;34673;52.808;17.856;2022-11-15T16:43:40;167.02;;;42.90;;
48853;SDS011;34673;52.808;17.856;2022-11-15T16:46:12;180.82;;;41.63;;
48853;SDS011;34673;52.808;17.856;2022-11-15T16:48:42;170.93;;;41.28;;
48853;SDS011;34673;52.808;17.856;2022-11-15T16:51:09;174.70;;;39.55;;
48853;SDS011;34673;52.808;17.856;2022-11-15T16:53:37;191.00;;;40.42;;
48853;SDS011;34673;52.808;17.856;2022-11-15T16:58:58;179.35;;;38.22;;
48853;SDS011;34673;52.808;17.856;2022-11-15T17:01:27;194.48;;;40.13;;
48853;SDS011;34673;52.808;17.856;2022-11-15T17:03:59;109.18;;;33.88;;
48853;SDS011;34673;52.808;17.856;2022-11-15T17:06:38;119.20;;;35.17;;
48853;SDS011;34673;52.808;17.856;2022-11-15T17:09:10;152.90;;;37.13;;
48853;SDS011;34673;52.808;17.856;2022-11-15T17:11:43;103.80;;;34.13;;
48853;SDS011;34673;52.808;17.856;2022-11-15T17:14:12;203.65;;;39.88;;
48853;SDS011;34673;52.808;17.856;2022-11-15T17:16:39;166.82;;;38.67;;
48853;SDS011;34673;52.808;17.856;2022-11-15T17:19:14;125.35;;;35.33;;
48853;SDS011;34673;52.808;17.856;2022-11-15T17:21:44;169.98;;;39.25;;
48853;SDS011;34673;52.808;17.856;2022-11-15T17:24:12;152.63;;;38.00;;
48853;SDS011;34673;52.808;17.856;2022-11-15T17:26:40;109.18;;;36.28;;
48853;SDS011;34673;52.808;17.856;2022-11-15T17:29:08;108.50;;;36.00;;
48853;SDS011;34673;52.808;17.856;2022-11-15T17:31:36;158.63;;;39.35;;
48853;SDS011;34673;52.808;17.856;2022-11-15T17:34:05;195.10;;;39.50;;
48853;SDS011;34673;52.808;17.856;2022-11-15T17:36:33;179.30;;;38.42;;
48853;SDS011;34673;52.808;17.856;2022-11-15T17:39:00;89.13;;;32.60;;
48853;SDS011;34673;52.808;17.856;2022-11-15T17:41:28;132.27;;;37.25;;
48853;SDS011;34673;52.808;17.856;2022-11-15T17:43:56;146.38;;;33.97;;
48853;SDS011;34673;52.808;17.856;2022-11-15T17:46:26;168.63;;;38.60;;
48853;SDS011;34673;52.808;17.856;2022-11-15T17:48:54;155.13;;;36.50;;
48853;SDS011;34673;52.808;17.856;2022-11-15T17:51:23;161.48;;;36.60;;